createdAt,value
2017-08-18T00:02:17.236Z,100709.67
2017-08-18T00:04:43.598Z,100713.17
2017-08-18T00:07:09.974Z,100702.38
2017-08-18T00:09:36.338Z,100696.88
2017-08-18T00:12:02.929Z,100698.63
2017-08-18T00:14:29.425Z,100707.73
2017-08-18T00:16:56.045Z,100708.52
2017-08-18T00:19:23.014Z,100709.39
2017-08-18T00:21:49.692Z,100703.44
2017-08-18T00:24:16.340Z,100698.63
2017-08-18T00:26:48.035Z,100694.48
2017-08-18T00:29:14.933Z,100696.38
2017-08-18T00:31:41.728Z,100692.78
2017-08-18T00:34:08.415Z,100689.97
2017-08-18T00:36:35.251Z,100685.92
2017-08-18T00:39:01.694Z,100692.06
2017-08-18T00:41:28.173Z,100691.72
2017-08-18T00:43:54.606Z,100689.69
2017-08-18T00:46:21.111Z,100688.45
2017-08-18T00:48:47.577Z,100679.73
2017-08-18T00:51:14.008Z,100678.70
2017-08-18T00:53:40.441Z,100674.39
2017-08-18T00:56:06.907Z,100669.80
2017-08-18T00:58:33.413Z,100672.11
2017-08-18T01:00:59.927Z,100673.77
2017-08-18T01:03:26.374Z,100661.55
2017-08-18T01:05:52.885Z,100660.55
2017-08-18T01:08:19.328Z,100664.06
2017-08-18T01:10:45.821Z,100656.16
2017-08-18T01:13:12.286Z,100651.23
2017-08-18T01:15:38.679Z,100654.77
2017-08-18T01:18:05.084Z,100648.70
2017-08-18T01:20:31.581Z,100655.41
2017-08-18T01:22:58.050Z,100649.02
2017-08-18T01:25:24.432Z,100645.41
2017-08-18T01:27:50.863Z,100632.67
2017-08-18T01:30:17.296Z,100632.67
2017-08-18T01:32:43.730Z,100638.23
2017-08-18T01:35:10.159Z,100636.89
2017-08-18T01:37:36.605Z,100631.34
2017-08-18T01:40:03.040Z,100640.34
2017-08-18T01:42:29.476Z,100643.77
2017-08-18T01:44:55.890Z,100641.91
2017-08-18T01:47:22.333Z,100648.70
2017-08-18T01:49:48.765Z,100647.80
2017-08-18T01:52:15.189Z,100653.08
2017-08-18T01:54:41.617Z,100650.13
2017-08-18T01:57:08.021Z,100637.92
2017-08-18T01:59:34.426Z,100637.66
2017-08-18T02:02:00.809Z,100637.56
2017-08-18T02:04:27.212Z,100630.25
2017-08-18T02:06:53.620Z,100631.11
2017-08-18T02:09:19.998Z,100640.67
2017-08-18T02:11:46.397Z,100636.14
2017-08-18T02:14:12.782Z,100635.41
2017-08-18T02:16:39.211Z,100638.52
2017-08-18T02:19:05.551Z,100638.77
2017-08-18T02:21:31.898Z,100644.98
2017-08-18T02:23:58.290Z,100653.25
2017-08-18T02:26:24.683Z,100650.81
2017-08-18T02:28:51.093Z,100646.03
2017-08-18T02:31:17.498Z,100647.33
2017-08-18T02:33:43.918Z,100648.75
2017-08-18T02:36:10.327Z,100641.11
2017-08-18T02:38:36.761Z,100646.50
2017-08-18T02:41:03.163Z,100641.67
2017-08-18T02:43:29.598Z,100647.41
2017-08-18T02:45:56.027Z,100641.83
2017-08-18T02:48:22.452Z,100638.77
2017-08-18T02:50:48.845Z,100643.50
2017-08-18T02:53:15.320Z,100641.16
2017-08-18T02:55:41.754Z,100648.23
2017-08-18T02:58:08.136Z,100654.92
2017-08-18T03:00:34.607Z,100655.73
2017-08-18T03:03:01.019Z,100652.82
2017-08-18T03:05:27.468Z,100664.49
2017-08-18T03:07:53.900Z,100662.77
2017-08-18T03:10:20.347Z,100668.45
2017-08-18T03:12:46.751Z,100671.02
2017-08-18T03:15:13.166Z,100664.09
2017-08-18T03:17:39.595Z,100668.51
2017-08-18T03:20:06.037Z,100656.08
2017-08-18T03:22:32.429Z,100657.33
2017-08-18T03:24:58.814Z,100663.44
2017-08-18T03:27:25.321Z,100664.72
2017-08-18T03:29:52.959Z,100646.19
2017-08-18T03:32:19.439Z,100658.19
2017-08-18T03:34:45.853Z,100638.66
2017-08-18T03:37:12.305Z,100616.48
2017-08-18T03:39:39.013Z,100617.08
2017-08-18T03:42:05.492Z,100610.37
2017-08-18T03:44:32.022Z,100611.21
2017-08-18T03:46:58.494Z,100610.61
2017-08-18T03:49:25.552Z,100624.32
2017-08-18T03:51:52.071Z,100628.80
2017-08-18T03:54:19.364Z,100623.44
2017-08-18T03:56:45.827Z,100626.32
2017-08-18T03:59:12.307Z,100629.87
2017-08-18T04:01:38.863Z,100628.83
2017-08-18T04:04:05.376Z,100632.64
2017-08-18T04:06:33.211Z,100630.08
2017-08-18T04:08:59.792Z,100635.09
2017-08-18T04:11:26.184Z,100639.54
2017-08-18T04:13:52.584Z,100639.11
2017-08-18T04:16:18.959Z,100641.82
2017-08-18T04:18:45.380Z,100637.61
2017-08-18T04:21:11.814Z,100637.92
2017-08-18T04:23:38.337Z,100628.11
2017-08-18T04:26:04.782Z,100636.41
2017-08-18T04:28:31.179Z,100638.48
2017-08-18T04:30:57.628Z,100645.12
2017-08-18T04:33:24.113Z,100650.52
2017-08-18T04:35:50.621Z,100660.27
2017-08-18T04:38:17.444Z,100652.73
2017-08-18T04:40:43.875Z,100664.20
2017-08-18T04:43:10.244Z,100663.09
2017-08-18T04:45:36.638Z,100669.45
2017-08-18T04:48:03.052Z,100655.48
2017-08-18T04:50:29.491Z,100660.09
2017-08-18T04:52:55.890Z,100663.89
2017-08-18T04:55:22.269Z,100662.81
2017-08-18T04:57:48.689Z,100669.99
2017-08-18T05:00:15.122Z,100669.22
2017-08-18T05:02:41.505Z,100655.25
2017-08-18T05:05:07.934Z,100656.84
2017-08-18T05:07:34.299Z,100653.97
2017-08-18T05:10:00.661Z,100646.02
2017-08-18T05:12:27.033Z,100643.48
2017-08-18T05:14:53.395Z,100630.08
2017-08-18T05:17:19.769Z,100637.63
2017-08-18T05:19:46.189Z,100629.16
2017-08-18T05:22:12.608Z,100632.08
2017-08-18T05:24:39.015Z,100620.53
2017-08-18T05:27:05.399Z,100619.93
2017-08-18T05:29:31.949Z,100627.34
2017-08-18T05:31:58.379Z,100622.84
2017-08-18T05:34:24.722Z,100628.65
2017-08-18T05:36:51.123Z,100640.09
2017-08-18T05:39:17.501Z,100637.29
2017-08-18T05:41:43.900Z,100640.45
2017-08-18T05:45:14.620Z,100648.15
2017-08-18T05:47:40.972Z,100634.84
2017-08-18T05:50:07.353Z,100609.73
2017-08-18T05:52:34.085Z,100593.45
2017-08-18T05:55:00.473Z,100603.69
2017-08-18T05:57:26.839Z,100610.00
2017-08-18T05:59:53.261Z,100614.80
2017-08-18T06:02:19.636Z,100611.23
2017-08-18T06:04:46.504Z,100607.38
2017-08-18T06:07:16.151Z,100608.23
2017-08-18T06:09:42.528Z,100600.59
2017-08-18T06:12:08.883Z,100604.27
2017-08-18T06:14:35.273Z,100604.31
2017-08-18T06:17:01.631Z,100609.70
2017-08-18T06:19:28.017Z,100615.42
2017-08-18T06:21:54.409Z,100600.30
2017-08-18T06:24:20.772Z,100598.16
2017-08-18T06:26:47.141Z,100592.31
2017-08-18T06:29:13.527Z,100596.50
2017-08-18T06:31:39.907Z,100594.10
2017-08-18T06:34:06.350Z,100590.16
2017-08-18T06:36:36.038Z,100592.17
2017-08-18T06:39:02.512Z,100592.94
2017-08-18T06:41:28.904Z,100597.16
2017-08-18T06:43:55.778Z,100598.35
2017-08-18T06:46:22.183Z,100599.02
2017-08-18T06:48:48.627Z,100591.26
2017-08-18T06:51:14.993Z,100576.52
2017-08-18T06:53:41.435Z,100571.89
2017-08-18T06:56:07.844Z,100571.12
2017-08-18T06:58:34.250Z,100572.66
2017-08-18T07:01:00.658Z,100564.84
2017-08-18T07:03:27.028Z,100568.80
2017-08-18T07:05:53.391Z,100554.55
2017-08-18T07:08:19.789Z,100559.47
2017-08-18T07:10:47.127Z,100559.69
2017-08-18T07:13:13.511Z,100570.84
2017-08-18T07:15:39.922Z,100579.73
2017-08-18T07:18:06.373Z,100587.91
2017-08-18T07:20:32.729Z,100598.99
2017-08-18T07:22:59.149Z,100594.56
2017-08-18T07:25:25.517Z,100595.53
2017-08-18T07:27:51.998Z,100611.47
2017-08-18T07:30:18.376Z,100610.42
2017-08-18T07:32:45.967Z,100605.48
2017-08-18T07:35:12.725Z,100616.00
2017-08-18T07:37:39.359Z,100621.77
2017-08-18T07:40:05.760Z,100619.59
2017-08-18T07:42:32.219Z,100630.36
2017-08-18T07:44:58.624Z,100622.84
2017-08-18T07:47:25.085Z,100621.73
2017-08-18T07:49:52.131Z,100615.92
2017-08-18T07:52:18.529Z,100604.27
2017-08-18T07:54:44.908Z,100596.14
2017-08-18T07:57:15.039Z,100594.53
2017-08-18T07:59:46.422Z,100598.16
2017-08-18T08:02:16.713Z,100597.23
2017-08-18T08:04:47.048Z,100602.25
2017-08-18T08:07:20.232Z,100607.80
2017-08-18T08:09:51.192Z,100609.17
2017-08-18T08:12:21.842Z,100604.94
2017-08-18T08:14:52.374Z,100615.94
2017-08-18T08:17:22.579Z,100604.94
2017-08-18T08:36:08.215Z,100581.97
2017-08-18T08:38:38.423Z,100579.86
2017-08-18T08:41:09.048Z,100583.73
2017-08-18T08:43:40.594Z,100585.83
2017-08-18T08:46:11.096Z,100584.58
2017-08-18T09:01:37.817Z,100559.13
2017-08-18T09:04:04.296Z,100554.30
2017-08-18T09:06:31.262Z,100547.90
2017-08-18T09:08:57.675Z,100542.68
2017-08-18T09:11:24.070Z,100546.61
2017-08-18T09:13:50.495Z,100555.36
2017-08-18T09:16:16.956Z,100554.52
2017-08-18T09:18:43.352Z,100555.31
2017-08-18T09:21:09.760Z,100559.36
2017-08-18T09:23:36.156Z,100551.77
2017-08-18T09:26:03.083Z,100550.81
2017-08-18T09:28:29.529Z,100554.81
2017-08-18T09:30:55.900Z,100553.09
2017-08-18T09:33:22.286Z,100549.03
2017-08-18T09:35:48.874Z,100545.70
2017-08-18T09:38:15.299Z,100532.72
2017-08-18T09:40:41.682Z,100533.65
2017-08-18T09:43:08.116Z,100533.86
2017-08-18T09:45:34.554Z,100534.98
2017-08-18T09:48:12.966Z,100529.35
2017-08-18T09:50:51.458Z,100523.00
2017-08-18T09:53:29.921Z,100521.66
2017-08-18T09:56:08.888Z,100522.69
2017-08-18T09:58:47.514Z,100518.22
2017-08-18T10:01:13.890Z,100508.77
2017-08-18T10:03:40.283Z,100508.48
2017-08-18T10:06:06.695Z,100519.94
2017-08-18T10:08:33.332Z,100512.08
2017-08-18T10:10:59.752Z,100514.50
2017-08-18T10:13:26.343Z,100511.42
2017-08-18T10:15:52.754Z,100523.09
2017-08-18T10:18:19.205Z,100511.80
2017-08-18T10:20:45.734Z,100509.56
2017-08-18T10:23:12.539Z,100506.87
2017-08-18T10:25:38.933Z,100515.03
2017-08-18T10:28:05.541Z,100519.14
2017-08-18T10:30:31.941Z,100522.80
2017-08-18T10:33:00.149Z,100517.78
2017-08-18T10:35:26.668Z,100517.80
2017-08-18T10:37:53.115Z,100516.30
2017-08-18T10:40:19.504Z,100511.83
2017-08-18T10:42:45.929Z,100512.84
2017-08-18T10:45:12.992Z,100509.67
2017-08-18T10:47:39.433Z,100506.14
2017-08-18T10:50:06.161Z,100509.90
2017-08-18T10:52:32.569Z,100503.00
2017-08-18T10:54:59.154Z,100508.22
2017-08-18T10:57:25.620Z,100501.83
2017-08-18T10:59:52.025Z,100502.80
2017-08-18T11:02:18.944Z,100503.19
2017-08-18T11:04:45.817Z,100499.16
2017-08-18T11:07:12.211Z,100496.62
2017-08-18T11:09:39.425Z,100496.30
2017-08-18T11:12:05.923Z,100499.37
2017-08-18T11:14:32.315Z,100494.47
2017-08-18T11:16:58.696Z,100496.23
2017-08-18T11:19:25.088Z,100488.54
2017-08-18T11:21:51.487Z,100490.59
2017-08-18T11:24:17.850Z,100488.37
2017-08-18T11:26:44.297Z,100493.16
2017-08-18T11:29:10.714Z,100496.05
2017-08-18T11:31:37.098Z,100492.47
2017-08-18T11:34:03.568Z,100488.81
2017-08-18T11:36:29.963Z,100484.95
2017-08-18T11:38:56.355Z,100486.39
2017-08-18T11:41:22.759Z,100485.80
2017-08-18T11:43:49.191Z,100479.03
2017-08-18T11:46:15.579Z,100480.42
2017-08-18T11:48:41.974Z,100474.78
2017-08-18T11:51:08.371Z,100479.46
2017-08-18T11:53:34.759Z,100478.81
2017-08-18T11:56:01.171Z,100477.47
2017-08-18T11:58:27.577Z,100467.52
2017-08-18T12:00:53.979Z,100464.88
2017-08-18T12:03:20.797Z,100469.25
2017-08-18T12:05:47.457Z,100470.86
2017-08-18T12:08:14.142Z,100466.72
2017-08-18T12:10:40.558Z,100459.67
2017-08-18T12:13:07.516Z,100461.39
2017-08-18T12:15:34.006Z,100462.41
2017-08-18T12:18:00.691Z,100463.69
2017-08-18T12:20:27.317Z,100462.94
2017-08-18T12:22:54.014Z,100463.30
2017-08-18T12:25:20.516Z,100459.59
2017-08-18T12:27:47.269Z,100466.05
2017-08-18T12:30:13.690Z,100477.55
2017-08-18T12:32:40.090Z,100482.84
2017-08-18T12:35:06.517Z,100475.00
2017-08-18T12:37:34.716Z,100455.23
2017-08-18T12:42:48.466Z,100452.33
2017-08-18T12:45:14.937Z,100453.63
2017-08-18T12:47:41.324Z,100455.47
2017-08-18T12:50:07.769Z,100449.23
2017-08-18T12:52:34.206Z,100443.95
2017-08-18T12:55:00.611Z,100445.31
2017-08-18T12:57:26.978Z,100440.89
2017-08-18T12:59:53.356Z,100435.36
2017-08-18T13:02:19.851Z,100436.81
2017-08-18T13:04:46.263Z,100433.78
2017-08-18T13:07:12.681Z,100419.59
2017-08-18T13:09:39.059Z,100419.16
2017-08-18T13:12:05.436Z,100416.02
2017-08-18T13:14:31.814Z,100414.77
2017-08-18T13:16:58.244Z,100409.82
2017-08-18T13:19:24.992Z,100402.84
2017-08-18T13:21:51.388Z,100409.02
2017-08-18T13:24:17.783Z,100401.54
2017-08-18T13:26:44.162Z,100407.87
2017-08-18T13:29:12.126Z,100409.67
2017-08-18T13:31:38.568Z,100415.77
2017-08-18T13:34:04.931Z,100419.70
2017-08-18T13:36:31.328Z,100420.45
2017-08-18T13:38:57.719Z,100412.12
2017-08-18T13:41:24.086Z,100415.44
2017-08-18T13:43:50.438Z,100418.95
2017-08-18T13:46:16.843Z,100417.86
2017-08-18T13:48:43.243Z,100416.52
2017-08-18T13:51:09.615Z,100418.68
2017-08-18T13:53:35.999Z,100416.71
2017-08-18T13:56:02.391Z,100401.06
2017-08-18T13:58:28.760Z,100396.94
2017-08-18T14:00:55.154Z,100398.05
2017-08-18T14:03:21.609Z,100397.09
2017-08-18T14:05:47.980Z,100392.25
2017-08-18T14:08:14.342Z,100393.80
2017-08-18T14:10:40.791Z,100392.95
2017-08-18T14:13:07.174Z,100385.53
2017-08-18T14:15:33.535Z,100382.84
2017-08-18T14:17:59.883Z,100386.94
2017-08-18T14:20:26.284Z,100384.05
2017-08-18T14:22:52.721Z,100386.01
2017-08-18T14:38:49.971Z,100378.88
2017-08-18T14:41:16.348Z,100383.92
2017-08-18T14:43:42.731Z,100389.64
2017-08-18T14:46:09.129Z,100388.98
2017-08-18T14:48:35.495Z,100383.24
2017-08-18T14:51:01.897Z,100393.83
2017-08-18T14:53:28.284Z,100392.87
2017-08-18T14:55:54.685Z,100392.87
2017-08-18T14:58:21.155Z,100387.52
2017-08-18T15:00:47.600Z,100390.89
2017-08-18T15:03:14.024Z,100397.36
2017-08-18T15:05:40.390Z,100397.16
2017-08-18T15:08:06.789Z,100389.75
2017-08-18T15:10:33.183Z,100388.88
2017-08-18T15:12:59.574Z,100389.37
2017-08-18T15:15:25.937Z,100385.56
2017-08-18T15:17:52.318Z,100389.48
2017-08-18T15:20:18.718Z,100424.19
2017-08-18T15:22:45.121Z,100450.22
2017-08-18T15:25:11.550Z,100461.70
2017-08-18T15:27:39.230Z,100445.88
2017-08-18T15:30:06.319Z,100443.97
2017-08-18T15:32:33.181Z,100447.56
2017-08-18T15:34:59.656Z,100436.77
2017-08-18T15:37:26.059Z,100430.34
2017-08-18T15:39:52.550Z,100418.20
2017-08-18T15:42:18.944Z,100425.83
2017-08-18T15:44:45.351Z,100426.95
2017-08-18T15:47:11.909Z,100425.12
2017-08-18T15:49:38.359Z,100421.10
2017-08-18T15:52:04.708Z,100418.73
2017-08-18T15:54:31.086Z,100438.05
2017-08-18T15:56:57.938Z,100442.14
2017-08-18T15:59:24.753Z,100440.98
2017-08-18T16:01:51.668Z,100435.83
2017-08-18T16:04:18.427Z,100430.80
2017-08-18T16:06:44.897Z,100435.12
2017-08-18T16:09:11.317Z,100437.88
2017-08-18T16:11:37.723Z,100435.98
2017-08-18T16:14:04.121Z,100432.13
2017-08-18T16:16:30.601Z,100424.78
2017-08-18T16:18:57.000Z,100430.22
2017-08-18T16:21:23.778Z,100419.80
2017-08-18T16:23:50.190Z,100427.66
2017-08-18T16:26:16.592Z,100431.13
2017-08-18T16:28:43.533Z,100426.68
2017-08-18T16:31:09.973Z,100427.14
2017-08-18T16:33:36.364Z,100428.78
2017-08-18T16:36:03.027Z,100430.92
2017-08-18T16:38:29.426Z,100425.49
2017-08-18T16:40:55.831Z,100427.97
2017-08-18T16:43:22.241Z,100429.36
2017-08-18T16:45:48.969Z,100434.36
2017-08-18T16:48:15.973Z,100438.39
2017-08-18T16:50:42.681Z,100436.02
2017-08-18T16:53:09.301Z,100433.02
2017-08-18T16:55:35.732Z,100441.77
2017-08-18T16:58:02.325Z,100445.61
2017-08-18T17:00:28.739Z,100436.83
2017-08-18T17:02:55.118Z,100430.34
2017-08-18T17:05:21.475Z,100429.76
2017-08-18T17:07:47.879Z,100432.72
2017-08-18T17:10:14.301Z,100435.89
2017-08-18T17:12:40.682Z,100438.88
2017-08-18T17:15:07.047Z,100436.16
2017-08-18T17:17:33.440Z,100436.25
2017-08-18T17:19:59.816Z,100438.88
2017-08-18T17:22:26.189Z,100436.71
2017-08-18T17:24:53.854Z,100439.55
2017-08-18T17:27:20.291Z,100444.61
2017-08-18T17:29:46.663Z,100447.66
2017-08-18T17:32:13.036Z,100443.27
2017-08-18T17:34:39.412Z,100443.27
2017-08-18T17:37:05.793Z,100433.60
2017-08-18T17:39:32.146Z,100432.38
2017-08-18T17:41:58.698Z,100433.72
2017-08-18T17:44:25.054Z,100434.36
2017-08-18T17:46:51.424Z,100436.19
2017-08-18T17:49:17.795Z,100431.41
2017-08-18T17:51:44.166Z,100436.71
2017-08-18T17:54:10.517Z,100442.38
2017-08-18T17:56:36.912Z,100446.55
2017-08-18T17:59:03.286Z,100450.99
2017-08-18T18:01:29.664Z,100452.27
2017-08-18T18:03:56.062Z,100445.23
2017-08-18T18:06:22.545Z,100444.09
2017-08-18T18:08:48.977Z,100449.98
2017-08-18T18:11:16.172Z,100450.38
2017-08-18T18:13:42.603Z,100447.95
2017-08-18T18:16:08.978Z,100447.05
2017-08-18T18:18:35.386Z,100440.14
2017-08-18T18:21:01.773Z,100445.61
2017-08-18T18:23:28.144Z,100447.20
2017-08-18T18:25:54.549Z,100454.98
2017-08-18T18:28:20.909Z,100453.98
2017-08-18T18:30:48.020Z,100451.08
2017-08-18T18:33:14.489Z,100456.52
2017-08-18T18:35:40.844Z,100456.14
2017-08-18T18:38:07.228Z,100454.96
2017-08-18T18:40:33.656Z,100453.52
2017-08-18T18:43:00.063Z,100446.95
2017-08-18T18:45:26.459Z,100452.27
2017-08-18T18:47:52.953Z,100457.76
2017-08-18T18:50:20.973Z,100463.20
2017-08-18T18:52:47.405Z,100463.81
2017-08-18T18:55:13.811Z,100455.22
2017-08-18T18:57:40.241Z,100454.09
2017-08-18T19:00:06.630Z,100461.66
2017-08-18T19:02:33.050Z,100472.78
2017-08-18T19:04:59.429Z,100493.97
2017-08-18T19:07:25.882Z,100490.98
2017-08-18T19:09:52.297Z,100488.52
2017-08-18T19:12:18.735Z,100488.94
2017-08-18T19:14:45.122Z,100485.14
2017-08-18T19:17:11.531Z,100479.44
2017-08-18T19:19:37.928Z,100484.45
2017-08-18T19:22:04.920Z,100478.14
2017-08-18T19:24:31.335Z,100488.66
2017-08-18T19:26:57.727Z,100499.80
2017-08-18T19:29:24.134Z,100498.34
2017-08-18T19:31:50.551Z,100505.32
2017-08-18T19:34:16.926Z,100509.41
2017-08-18T19:36:43.328Z,100512.36
2017-08-18T19:39:09.708Z,100513.61
2017-08-18T19:41:36.163Z,100514.13
2017-08-18T19:44:02.718Z,100527.02
2017-08-18T19:46:29.084Z,100524.19
2017-08-18T19:48:56.790Z,100523.59
2017-08-18T19:51:24.822Z,100529.36
2017-08-18T19:53:51.364Z,100524.86
2017-08-18T19:56:17.738Z,100530.70
2017-08-18T19:58:44.116Z,100532.16
2017-08-18T20:01:10.497Z,100539.36
2017-08-18T20:03:36.862Z,100533.50
2017-08-18T20:06:03.216Z,100536.58
2017-08-18T20:08:29.880Z,100538.34
2017-08-18T20:10:56.229Z,100536.77
2017-08-18T20:13:22.615Z,100540.65
2017-08-18T20:15:49.035Z,100547.06
2017-08-18T20:18:15.415Z,100541.25
2017-08-18T20:20:41.805Z,100555.80
2017-08-18T20:23:08.180Z,100556.52
2017-08-18T20:25:34.537Z,100559.28
2017-08-18T20:28:00.926Z,100584.53
2017-08-18T20:30:27.290Z,100583.81
2017-08-18T20:32:54.007Z,100586.08
2017-08-18T20:35:20.361Z,100575.89
2017-08-18T20:37:46.738Z,100578.17
2017-08-18T20:40:13.110Z,100580.55
2017-08-18T20:42:39.489Z,100582.08
2017-08-18T20:45:05.886Z,100580.42
2017-08-18T20:47:32.276Z,100579.70
2017-08-18T20:49:58.627Z,100570.44
2017-08-18T20:52:24.972Z,100578.09
2017-08-18T20:54:51.382Z,100586.83
2017-08-18T20:57:17.747Z,100583.00
2017-08-18T20:59:44.114Z,100583.83
2017-08-18T21:02:10.514Z,100582.87
2017-08-18T21:04:36.931Z,100587.60
2017-08-18T21:07:03.301Z,100583.91
2017-08-18T21:09:29.700Z,100599.13
2017-08-18T21:11:56.074Z,100594.62
2017-08-18T21:14:22.464Z,100589.51
2017-08-18T21:16:48.854Z,100589.13
2017-08-18T21:19:15.229Z,100589.22
2017-08-18T21:21:41.655Z,100590.83
2017-08-18T21:24:08.017Z,100593.90
2017-08-18T21:26:34.374Z,100597.20
2017-08-18T21:29:00.760Z,100591.02
2017-08-18T21:31:27.876Z,100593.42
2017-08-18T21:33:54.320Z,100595.23
2017-08-18T21:36:20.679Z,100592.55
2017-08-18T21:38:47.951Z,100602.23
2017-08-18T21:41:14.587Z,100596.97
2017-08-18T21:43:41.088Z,100604.84
2017-08-18T21:46:07.803Z,100610.19
2017-08-18T21:48:34.211Z,100610.02
2017-08-18T21:51:00.821Z,100616.36
2017-08-18T21:53:27.237Z,100611.39
2017-08-18T21:55:54.052Z,100616.22
2017-08-18T21:58:20.445Z,100608.25
2017-08-18T22:00:47.158Z,100613.28
2017-08-18T22:03:13.615Z,100626.27
2017-08-18T22:05:40.048Z,100627.33
2017-08-18T22:08:06.424Z,100629.59
2017-08-18T22:10:32.784Z,100624.42
2017-08-18T22:12:59.149Z,100623.05
2017-08-18T22:15:25.568Z,100626.08
2017-08-18T22:17:52.003Z,100632.47
2017-08-18T22:20:18.403Z,100633.52
2017-08-18T22:22:44.750Z,100634.56
2017-08-18T22:25:11.230Z,100629.60
2017-08-18T22:27:37.623Z,100630.59
2017-08-18T22:30:04.044Z,100630.23
2017-08-18T22:32:30.387Z,100631.00
2017-08-18T22:34:56.754Z,100637.80
2017-08-18T22:37:23.909Z,100633.38
2017-08-18T22:39:51.012Z,100632.64
2017-08-18T22:42:18.046Z,100631.58
2017-08-18T22:44:44.694Z,100632.83
2017-08-18T22:47:11.078Z,100641.04
2017-08-18T22:49:37.440Z,100635.91
2017-08-18T22:52:04.539Z,100637.15
2017-08-18T22:54:31.005Z,100643.80
2017-08-18T22:56:58.522Z,100648.45
2017-08-18T22:59:24.903Z,100650.89
2017-08-18T23:01:51.282Z,100645.36
2017-08-18T23:04:17.695Z,100653.58
2017-08-18T23:06:44.099Z,100655.21
2017-08-18T23:09:14.902Z,100661.25
2017-08-18T23:11:41.456Z,100657.02
2017-08-18T23:14:07.833Z,100655.00
2017-08-18T23:16:34.218Z,100666.41
2017-08-18T23:19:01.396Z,100667.09
2017-08-18T23:21:29.631Z,100669.94
2017-08-18T23:23:56.733Z,100673.98
2017-08-18T23:26:23.135Z,100674.07
2017-08-18T23:28:50.350Z,100683.63
2017-08-18T23:31:16.801Z,100675.70
2017-08-18T23:33:43.448Z,100681.20
2017-08-18T23:36:09.996Z,100681.27
2017-08-18T23:38:36.395Z,100678.59
2017-08-18T23:41:02.756Z,100678.06
2017-08-18T23:43:29.166Z,100675.88
2017-08-18T23:45:55.568Z,100688.80
2017-08-18T23:48:21.952Z,100682.98
2017-08-18T23:50:48.427Z,100686.53
2017-08-18T23:53:14.809Z,100686.72
2017-08-18T23:55:44.210Z,100687.75
2017-08-18T23:58:11.240Z,100688.75
